sensor_id;sensor_type;location;lat;lon;timestamp;pressure;altitude;pressure_sealevel;temperature;humidity
64019;BME280;66942;52.138;5.216;2023-02-01T00:01:24;101978.0;;;7.03;66.78
64019;BME280;66942;52.138;5.216;2023-02-01T00:03:01;101978.0;;;7.19;66.37
64019;BME280;66942;52.138;5.216;2023-02-01T00:04:36;101980.0;;;7.12;66.53
64019;BME280;66942;52.138;5.216;2023-02-01T00:07:49;101981.0;;;7.21;66.28
64019;BME280;66942;52.138;5.216;2023-02-01T00:09:26;101978.0;;;7.28;66.19
64019;BME280;66942;52.138;5.216;2023-02-01T00:11:04;101980.0;;;7.29;66.0
64019;BME280;66942;52.138;5.216;2023-02-01T00:14:17;101983.0;;;7.33;66.06
64019;BME280;66942;52.138;5.216;2023-02-01T00:15:54;101983.0;;;7.33;66.08
64019;BME280;66942;52.138;5.216;2023-02-01T00:17:30;101978.0;;;7.52;65.83
64019;BME280;66942;52.138;5.216;2023-02-01T00:20:48;101976.0;;;7.52;65.94
64019;BME280;66942;52.138;5.216;2023-02-01T00:22:24;101976.0;;;7.56;65.78
64019;BME280;66942;52.138;5.216;2023-02-01T00:24:02;101976.0;;;7.52;66.02
64019;BME280;66942;52.138;5.216;2023-02-01T00:25:39;101978.0;;;7.43;66.49
64019;BME280;66942;52.138;5.216;2023-02-01T00:28:53;101978.0;;;7.66;66.08
64019;BME280;66942;52.138;5.216;2023-02-01T00:30:29;101975.0;;;7.67;66.09
64019;BME280;66942;52.138;5.216;2023-02-01T00:32:05;101965.0;;;7.5;66.02
64019;BME280;66942;52.138;5.216;2023-02-01T00:35:18;101962.0;;;7.66;66.05
64019;BME280;66942;52.138;5.216;2023-02-01T00:36:54;101959.0;;;7.73;65.77
64019;BME280;66942;52.138;5.216;2023-02-01T00:38:31;101967.0;;;7.71;65.34
64019;BME280;66942;52.138;5.216;2023-02-01T00:40:09;101970.0;;;7.69;65.48
64019;BME280;66942;52.138;5.216;2023-02-01T00:43:22;101970.0;;;7.65;65.47
64019;BME280;66942;52.138;5.216;2023-02-01T00:44:58;101977.0;;;7.8;65.09
64019;BME280;66942;52.138;5.216;2023-02-01T00:46:35;101973.0;;;7.81;65.0
64019;BME280;66942;52.138;5.216;2023-02-01T00:49:48;101970.0;;;8.06;64.48
64019;BME280;66942;52.138;5.216;2023-02-01T00:51:26;101966.0;;;7.99;64.67
64019;BME280;66942;52.138;5.216;2023-02-01T00:53:03;101967.0;;;8.07;64.44
64019;BME280;66942;52.138;5.216;2023-02-01T00:56:16;101974.0;;;8.19;64.14
64019;BME280;66942;52.138;5.216;2023-02-01T00:57:52;101969.0;;;8.15;64.12
64019;BME280;66942;52.138;5.216;2023-02-01T00:59:28;101964.0;;;8.24;64.11
64019;BME280;66942;52.138;5.216;2023-02-01T01:01:07;101960.0;;;8.19;64.13
64019;BME280;66942;52.138;5.216;2023-02-01T01:04:20;101968.0;;;8.02;64.33
64019;BME280;66942;52.138;5.216;2023-02-01T01:05:56;101963.0;;;8.24;64.41
64019;BME280;66942;52.138;5.216;2023-02-01T01:07:33;101965.0;;;8.31;63.78
64019;BME280;66942;52.138;5.216;2023-02-01T01:10:45;101956.0;;;8.19;63.86
64019;BME280;66942;52.138;5.216;2023-02-01T01:12:21;101953.0;;;8.34;63.34
64019;BME280;66942;52.138;5.216;2023-02-01T01:13:59;101949.0;;;8.01;63.55
64019;BME280;66942;52.138;5.216;2023-02-01T01:17:13;101952.0;;;8.24;63.34
64019;BME280;66942;52.138;5.216;2023-02-01T01:18:49;101957.0;;;8.16;63.09
64019;BME280;66942;52.138;5.216;2023-02-01T01:20:27;101953.0;;;8.19;63.11
64019;BME280;66942;52.138;5.216;2023-02-01T01:22:03;101955.0;;;8.31;62.7
64019;BME280;66942;52.138;5.216;2023-02-01T01:25:17;101946.0;;;8.26;62.32
64019;BME280;66942;52.138;5.216;2023-02-01T01:26:53;101953.0;;;8.26;62.52
64019;BME280;66942;52.138;5.216;2023-02-01T01:28:29;101955.0;;;8.14;62.5
64019;BME280;66942;52.138;5.216;2023-02-01T01:31:43;101941.0;;;8.39;62.07
64019;BME280;66942;52.138;5.216;2023-02-01T01:33:19;101948.0;;;8.39;62.0
64019;BME280;66942;52.138;5.216;2023-02-01T01:34:55;101950.0;;;8.36;62.24
64019;BME280;66942;52.138;5.216;2023-02-01T01:38:08;101952.0;;;8.13;62.52
64019;BME280;66942;52.138;5.216;2023-02-01T01:39:45;101951.0;;;8.23;62.34
64019;BME280;66942;52.138;5.216;2023-02-01T01:41:23;101952.0;;;8.32;61.95
64019;BME280;66942;52.138;5.216;2023-02-01T01:43:00;101955.0;;;8.16;62.31
64019;BME280;66942;52.138;5.216;2023-02-01T01:46:57;101951.0;;;8.14;62.55
64019;BME280;66942;52.138;5.216;2023-02-01T01:48:33;101948.0;;;8.48;61.97
64019;BME280;66942;52.138;5.216;2023-02-01T01:50:13;101940.0;;;8.43;62.15
64019;BME280;66942;52.138;5.216;2023-02-01T01:51:55;101942.0;;;8.19;62.48
64019;BME280;66942;52.138;5.216;2023-02-01T01:53:42;101937.0;;;8.22;62.67
64019;BME280;66942;52.138;5.216;2023-02-01T01:57:04;101927.0;;;8.35;62.61
64019;BME280;66942;52.138;5.216;2023-02-01T01:58:42;101925.0;;;8.39;62.5
64019;BME280;66942;52.138;5.216;2023-02-01T02:00:20;101924.0;;;8.48;62.72
64019;BME280;66942;52.138;5.216;2023-02-01T02:01:57;101925.0;;;8.36;62.76
64019;BME280;66942;52.138;5.216;2023-02-01T02:05:16;101918.0;;;8.35;63.04
64019;BME280;66942;52.138;5.216;2023-02-01T02:06:59;101917.0;;;8.22;63.29
64019;BME280;66942;52.138;5.216;2023-02-01T02:08:37;101914.0;;;8.25;63.56
64019;BME280;66942;52.138;5.216;2023-02-01T02:10:15;101912.0;;;8.33;63.34
64019;BME280;66942;52.138;5.216;2023-02-01T02:13:31;101917.0;;;8.52;63.12
64019;BME280;66942;52.138;5.216;2023-02-01T02:15:13;101920.0;;;8.49;63.45
64019;BME280;66942;52.138;5.216;2023-02-01T02:17:06;101908.0;;;8.53;63.11
64019;BME280;66942;52.138;5.216;2023-02-01T02:19:07;101910.0;;;8.51;63.34
64019;BME280;66942;52.138;5.216;2023-02-01T02:21:02;101903.0;;;8.64;63.25
64019;BME280;66942;52.138;5.216;2023-02-01T02:23:16;101905.0;;;8.53;63.99
64019;BME280;66942;52.138;5.216;2023-02-01T02:26:39;101897.0;;;8.48;64.06
64019;BME280;66942;52.138;5.216;2023-02-01T02:30:20;101898.0;;;8.51;63.87
64019;BME280;66942;52.138;5.216;2023-02-01T02:32:24;101898.0;;;8.58;63.47
64019;BME280;66942;52.138;5.216;2023-02-01T02:34:54;101881.0;;;8.58;63.53
64019;BME280;66942;52.138;5.216;2023-02-01T02:36:39;101883.0;;;8.64;63.35
64019;BME280;66942;52.138;5.216;2023-02-01T02:38:29;101881.0;;;8.75;63.07
64019;BME280;66942;52.138;5.216;2023-02-01T02:40:15;101880.0;;;8.74;63.05
64019;BME280;66942;52.138;5.216;2023-02-01T02:47:32;101881.0;;;8.81;62.61
64019;BME280;66942;52.138;5.216;2023-02-01T02:49:44;101888.0;;;8.91;62.37
64019;BME280;66942;52.138;5.216;2023-02-01T02:55:37;101887.0;;;8.89;62.18
64019;BME280;66942;52.138;5.216;2023-02-01T03:05:39;101864.0;;;8.8;62.51
64019;BME280;66942;52.138;5.216;2023-02-01T03:07:49;101867.0;;;8.67;62.54
64019;BME280;66942;52.138;5.216;2023-02-01T03:09:37;101864.0;;;8.56;62.65
64019;BME280;66942;52.138;5.216;2023-02-01T03:11:16;101861.0;;;8.8;62.48
64019;BME280;66942;52.138;5.216;2023-02-01T03:13:03;101856.0;;;8.64;62.64
64019;BME280;66942;52.138;5.216;2023-02-01T03:16:24;101855.0;;;8.64;62.78
64019;BME280;66942;52.138;5.216;2023-02-01T03:18:06;101845.0;;;8.65;62.43
64019;BME280;66942;52.138;5.216;2023-02-01T03:19:51;101853.0;;;8.53;62.89
64019;BME280;66942;52.138;5.216;2023-02-01T03:21:33;101853.0;;;8.69;62.52
64019;BME280;66942;52.138;5.216;2023-02-01T03:24:59;101855.0;;;8.57;62.6
64019;BME280;66942;52.138;5.216;2023-02-01T03:26:43;101843.0;;;8.59;62.78
64019;BME280;66942;52.138;5.216;2023-02-01T03:28:25;101851.0;;;8.34;63.24
64019;BME280;66942;52.138;5.216;2023-02-01T03:30:11;101849.0;;;8.31;63.49
64019;BME280;66942;52.138;5.216;2023-02-01T03:31:53;101850.0;;;8.48;63.04
64019;BME280;66942;52.138;5.216;2023-02-01T03:35:08;101855.0;;;8.47;63.16
64019;BME280;66942;52.138;5.216;2023-02-01T03:36:48;101863.0;;;8.48;63.05
64019;BME280;66942;52.138;5.216;2023-02-01T03:38:29;101864.0;;;8.33;63.35
64019;BME280;66942;52.138;5.216;2023-02-01T03:40:08;101862.0;;;8.25;63.5
64019;BME280;66942;52.138;5.216;2023-02-01T03:43:29;101855.0;;;8.31;63.7
64019;BME280;66942;52.138;5.216;2023-02-01T03:45:13;101853.0;;;8.45;63.36
64019;BME280;66942;52.138;5.216;2023-02-01T03:46:58;101858.0;;;8.31;63.82
64019;BME280;66942;52.138;5.216;2023-02-01T03:48:36;101870.0;;;8.13;64.41
64019;BME280;66942;52.138;5.216;2023-02-01T03:51:58;101866.0;;;8.25;64.19
64019;BME280;66942;52.138;5.216;2023-02-01T03:53:36;101874.0;;;8.5;63.64
64019;BME280;66942;52.138;5.216;2023-02-01T03:55:18;101870.0;;;8.56;63.47
64019;BME280;66942;52.138;5.216;2023-02-01T03:57:00;101862.0;;;8.39;63.91
64019;BME280;66942;52.138;5.216;2023-02-01T04:00:18;101870.0;;;8.58;63.54
64019;BME280;66942;52.138;5.216;2023-02-01T04:01:59;101864.0;;;8.55;63.43
64019;BME280;66942;52.138;5.216;2023-02-01T04:03:35;101865.0;;;8.39;63.81
64019;BME280;66942;52.138;5.216;2023-02-01T04:05:11;101866.0;;;8.56;63.47
64019;BME280;66942;52.138;5.216;2023-02-01T04:08:25;101874.0;;;8.48;63.52
64019;BME280;66942;52.138;5.216;2023-02-01T04:10:01;101874.0;;;8.48;63.52
64019;BME280;66942;52.138;5.216;2023-02-01T04:11:38;101873.0;;;8.6;63.17
64019;BME280;66942;52.138;5.216;2023-02-01T04:14:50;101858.0;;;8.57;63.2
64019;BME280;66942;52.138;5.216;2023-02-01T04:16:27;101855.0;;;8.3;63.15
64019;BME280;66942;52.138;5.216;2023-02-01T04:18:04;101858.0;;;8.3;63.49
64019;BME280;66942;52.138;5.216;2023-02-01T04:21:17;101868.0;;;8.39;63.26
64019;BME280;66942;52.138;5.216;2023-02-01T04:22:53;101865.0;;;8.39;63.34
64019;BME280;66942;52.138;5.216;2023-02-01T04:24:30;101878.0;;;8.55;62.96
64019;BME280;66942;52.138;5.216;2023-02-01T04:26:06;101872.0;;;8.49;62.91
64019;BME280;66942;52.138;5.216;2023-02-01T04:29:19;101888.0;;;8.39;63.53
64019;BME280;66942;52.138;5.216;2023-02-01T04:30:55;101876.0;;;8.74;62.53
64019;BME280;66942;52.138;5.216;2023-02-01T04:32:32;101865.0;;;8.71;62.41
64019;BME280;66942;52.138;5.216;2023-02-01T04:35:45;101873.0;;;8.77;62.45
64019;BME280;66942;52.138;5.216;2023-02-01T04:37:21;101870.0;;;8.66;62.75
64019;BME280;66942;52.138;5.216;2023-02-01T04:38:57;101873.0;;;8.83;62.38
64019;BME280;66942;52.138;5.216;2023-02-01T04:42:09;101868.0;;;8.64;63.09
64019;BME280;66942;52.138;5.216;2023-02-01T04:43:45;101868.0;;;8.66;62.72
64019;BME280;66942;52.138;5.216;2023-02-01T04:45:22;101863.0;;;8.52;63.33
64019;BME280;66942;52.138;5.216;2023-02-01T04:46:58;101852.0;;;8.53;63.01
64019;BME280;66942;52.138;5.216;2023-02-01T04:50:11;101855.0;;;8.5;62.95
64019;BME280;66942;52.138;5.216;2023-02-01T04:51:48;101855.0;;;8.49;63.38
64019;BME280;66942;52.138;5.216;2023-02-01T04:53:24;101858.0;;;8.51;63.32
64019;BME280;66942;52.138;5.216;2023-02-01T04:56:39;101851.0;;;8.64;63.05
64019;BME280;66942;52.138;5.216;2023-02-01T04:58:16;101851.0;;;8.58;63.09
64019;BME280;66942;52.138;5.216;2023-02-01T04:59:52;101856.0;;;8.44;63.55
64019;BME280;66942;52.138;5.216;2023-02-01T05:03:06;101862.0;;;8.4;63.58
64019;BME280;66942;52.138;5.216;2023-02-01T05:04:43;101856.0;;;8.34;63.89
64019;BME280;66942;52.138;5.216;2023-02-01T05:06:19;101857.0;;;8.33;63.76
64019;BME280;66942;52.138;5.216;2023-02-01T05:07:55;101856.0;;;8.39;63.53
64019;BME280;66942;52.138;5.216;2023-02-01T05:13:48;101844.0;;;8.3;63.98
64019;BME280;66942;52.138;5.216;2023-02-01T05:15:24;101858.0;;;8.31;63.91
64019;BME280;66942;52.138;5.216;2023-02-01T05:16:59;101849.0;;;8.41;63.78
64019;BME280;66942;52.138;5.216;2023-02-01T05:18:35;101843.0;;;8.49;63.85
64019;BME280;66942;52.138;5.216;2023-02-01T05:21:48;101843.0;;;8.55;63.48
64019;BME280;66942;52.138;5.216;2023-02-01T05:23:24;101841.0;;;8.55;63.34
64019;BME280;66942;52.138;5.216;2023-02-01T05:25:01;101842.0;;;8.47;63.65
64019;BME280;66942;52.138;5.216;2023-02-01T05:28:16;101862.0;;;8.16;64.23
64019;BME280;66942;52.138;5.216;2023-02-01T05:29:51;101870.0;;;8.18;64.48
64019;BME280;66942;52.138;5.216;2023-02-01T05:31:28;101877.0;;;8.11;64.61
64019;BME280;66942;52.138;5.216;2023-02-01T05:33:04;101865.0;;;8.31;64.27
64019;BME280;66942;52.138;5.216;2023-02-01T05:36:16;101870.0;;;8.17;64.6
64019;BME280;66942;52.138;5.216;2023-02-01T05:37:53;101872.0;;;8.11;64.83
64019;BME280;66942;52.138;5.216;2023-02-01T05:39:29;101876.0;;;8.32;64.33
64019;BME280;66942;52.138;5.216;2023-02-01T05:42:41;101870.0;;;8.23;64.41
64019;BME280;66942;52.138;5.216;2023-02-01T05:44:17;101873.0;;;8.38;64.1
64019;BME280;66942;52.138;5.216;2023-02-01T05:45:54;101870.0;;;8.41;64.22
64019;BME280;66942;52.138;5.216;2023-02-01T05:49:06;101868.0;;;8.39;64.3
64019;BME280;66942;52.138;5.216;2023-02-01T05:50:43;101874.0;;;8.28;64.55
64019;BME280;66942;52.138;5.216;2023-02-01T05:52:19;101870.0;;;8.2;64.8
64019;BME280;66942;52.138;5.216;2023-02-01T05:53:55;101868.0;;;8.56;64.03
64019;BME280;66942;52.138;5.216;2023-02-01T05:57:08;101868.0;;;8.48;64.44
64019;BME280;66942;52.138;5.216;2023-02-01T05:58:44;101869.0;;;8.6;64.05
64019;BME280;66942;52.138;5.216;2023-02-01T06:00:22;101868.0;;;8.44;64.11
64019;BME280;66942;52.138;5.216;2023-02-01T06:03:35;101858.0;;;8.5;64.44
64019;BME280;66942;52.138;5.216;2023-02-01T06:05:12;101855.0;;;8.55;64.47
64019;BME280;66942;52.138;5.216;2023-02-01T06:06:50;101867.0;;;8.6;64.16
64019;BME280;66942;52.138;5.216;2023-02-01T06:10:03;101868.0;;;8.73;63.96
64019;BME280;66942;52.138;5.216;2023-02-01T06:11:40;101878.0;;;8.76;63.95
64019;BME280;66942;52.138;5.216;2023-02-01T06:13:17;101868.0;;;8.59;64.3
64019;BME280;66942;52.138;5.216;2023-02-01T06:14:54;101875.0;;;8.61;64.36
64019;BME280;66942;52.138;5.216;2023-02-01T06:18:07;101875.0;;;8.48;64.55
64019;BME280;66942;52.138;5.216;2023-02-01T06:19:44;101874.0;;;8.67;64.08
64019;BME280;66942;52.138;5.216;2023-02-01T06:21:23;101880.0;;;8.5;64.47
64019;BME280;66942;52.138;5.216;2023-02-01T06:24:36;101876.0;;;8.42;64.73
64019;BME280;66942;52.138;5.216;2023-02-01T06:26:12;101877.0;;;8.61;64.23
64019;BME280;66942;52.138;5.216;2023-02-01T06:27:48;101878.0;;;8.68;64.05
64019;BME280;66942;52.138;5.216;2023-02-01T06:29:26;101875.0;;;8.48;64.63
64019;BME280;66942;52.138;5.216;2023-02-01T06:32:41;101882.0;;;8.43;64.85
64019;BME280;66942;52.138;5.216;2023-02-01T06:34:18;101886.0;;;8.34;65.08
64019;BME280;66942;52.138;5.216;2023-02-01T06:35:57;101880.0;;;8.33;64.94
64019;BME280;66942;52.138;5.216;2023-02-01T06:39:16;101882.0;;;8.39;64.87
64019;BME280;66942;52.138;5.216;2023-02-01T06:40:52;101882.0;;;8.15;65.41
64019;BME280;66942;52.138;5.216;2023-02-01T06:42:30;101882.0;;;8.22;65.44
64019;BME280;66942;52.138;5.216;2023-02-01T06:44:06;101869.0;;;8.16;65.47
64019;BME280;66942;52.138;5.216;2023-02-01T06:47:18;101869.0;;;7.98;65.92
64019;BME280;66942;52.138;5.216;2023-02-01T06:48:54;101878.0;;;8.18;65.44
64019;BME280;66942;52.138;5.216;2023-02-01T06:50:30;101885.0;;;8.31;64.88
64019;BME280;66942;52.138;5.216;2023-02-01T06:53:43;101881.0;;;8.35;65.12
64019;BME280;66942;52.138;5.216;2023-02-01T06:55:19;101888.0;;;8.06;65.95
64019;BME280;66942;52.138;5.216;2023-02-01T06:56:55;101888.0;;;8.24;65.59
64019;BME280;66942;52.138;5.216;2023-02-01T07:00:10;101889.0;;;8.14;65.83
64019;BME280;66942;52.138;5.216;2023-02-01T07:01:46;101882.0;;;8.31;65.53
64019;BME280;66942;52.138;5.216;2023-02-01T07:03:22;101880.0;;;8.36;65.58
64019;BME280;66942;52.138;5.216;2023-02-01T07:04:58;101883.0;;;8.31;65.77
64019;BME280;66942;52.138;5.216;2023-02-01T07:08:11;101891.0;;;8.18;66.05
64019;BME280;66942;52.138;5.216;2023-02-01T07:09:47;101878.0;;;8.23;65.97
64019;BME280;66942;52.138;5.216;2023-02-01T07:11:23;101876.0;;;8.22;65.85
64019;BME280;66942;52.138;5.216;2023-02-01T07:14:36;101884.0;;;8.4;65.52
64019;BME280;66942;52.138;5.216;2023-02-01T07:16:14;101889.0;;;8.42;65.16
64019;BME280;66942;52.138;5.216;2023-02-01T07:17:53;101892.0;;;8.23;65.87
64019;BME280;66942;52.138;5.216;2023-02-01T07:21:07;101887.0;;;8.4;65.34
64019;BME280;66942;52.138;5.216;2023-02-01T07:22:44;101893.0;;;8.3;65.59
64019;BME280;66942;52.138;5.216;2023-02-01T07:24:21;101890.0;;;8.32;65.55
64019;BME280;66942;52.138;5.216;2023-02-01T07:26:00;101887.0;;;8.17;65.73
64019;BME280;66942;52.138;5.216;2023-02-01T07:29:13;101884.0;;;8.3;65.59
64019;BME280;66942;52.138;5.216;2023-02-01T07:30:51;101882.0;;;8.34;65.48
64019;BME280;66942;52.138;5.216;2023-02-01T07:32:27;101886.0;;;8.48;64.77
64019;BME280;66942;52.138;5.216;2023-02-01T07:35:41;101877.0;;;8.32;65.19
64019;BME280;66942;52.138;5.216;2023-02-01T07:37:18;101883.0;;;8.55;64.6
64019;BME280;66942;52.138;5.216;2023-02-01T07:38:54;101889.0;;;8.17;65.41
64019;BME280;66942;52.138;5.216;2023-02-01T07:42:07;101887.0;;;8.31;65.27
64019;BME280;66942;52.138;5.216;2023-02-01T07:43:42;101883.0;;;8.49;64.7
64019;BME280;66942;52.138;5.216;2023-02-01T07:45:20;101892.0;;;8.31;65.27
64019;BME280;66942;52.138;5.216;2023-02-01T07:46:57;101887.0;;;8.4;64.94
64019;BME280;66942;52.138;5.216;2023-02-01T07:50:10;101882.0;;;8.4;65.12
64019;BME280;66942;52.138;5.216;2023-02-01T07:51:46;101891.0;;;8.48;64.8
64019;BME280;66942;52.138;5.216;2023-02-01T07:53:22;101894.0;;;8.31;65.55
64019;BME280;66942;52.138;5.216;2023-02-01T07:56:34;101883.0;;;8.24;65.69
64019;BME280;66942;52.138;5.216;2023-02-01T07:58:11;101896.0;;;8.14;65.98
64019;BME280;66942;52.138;5.216;2023-02-01T08:01:22;101900.0;;;8.24;65.73
64019;BME280;66942;52.138;5.216;2023-02-01T08:03:21;101897.0;;;8.24;65.69
64019;BME280;66942;52.138;5.216;2023-02-01T08:04:57;101902.0;;;8.16;66.05
64019;BME280;66942;52.138;5.216;2023-02-01T08:06:34;101914.0;;;8.02;66.41
64019;BME280;66942;52.138;5.216;2023-02-01T08:08:10;101916.0;;;8.14;66.33
64019;BME280;66942;52.138;5.216;2023-02-01T08:11:23;101920.0;;;8.13;66.22
64019;BME280;66942;52.138;5.216;2023-02-01T08:13:01;101903.0;;;8.17;66.35
64019;BME280;66942;52.138;5.216;2023-02-01T08:14:41;101906.0;;;8.33;65.84
64019;BME280;66942;52.138;5.216;2023-02-01T08:16:19;101901.0;;;8.35;65.59
64019;BME280;66942;52.138;5.216;2023-02-01T08:19:32;101894.0;;;8.32;65.81
64019;BME280;66942;52.138;5.216;2023-02-01T08:21:10;101900.0;;;8.17;66.08
64019;BME280;66942;52.138;5.216;2023-02-01T08:22:48;101898.0;;;8.27;65.91
64019;BME280;66942;52.138;5.216;2023-02-01T08:26:07;101889.0;;;8.58;65.03
64019;BME280;66942;52.138;5.216;2023-02-01T08:27:47;101894.0;;;8.4;65.45
64019;BME280;66942;52.138;5.216;2023-02-01T08:29:24;101894.0;;;8.23;65.88
64019;BME280;66942;52.138;5.216;2023-02-01T08:31:04;101894.0;;;8.34;65.66
64019;BME280;66942;52.138;5.216;2023-02-01T08:34:17;101884.0;;;8.64;65.16
64019;BME280;66942;52.138;5.216;2023-02-01T08:35:53;101880.0;;;8.56;65.22
64019;BME280;66942;52.138;5.216;2023-02-01T08:37:29;101882.0;;;8.61;65.0
64019;BME280;66942;52.138;5.216;2023-02-01T08:40:46;101885.0;;;8.55;65.25
64019;BME280;66942;52.138;5.216;2023-02-01T08:42:55;101883.0;;;8.51;65.27
64019;BME280;66942;52.138;5.216;2023-02-01T08:44:31;101874.0;;;8.52;65.16
64019;BME280;66942;52.138;5.216;2023-02-01T08:46:07;101884.0;;;8.67;64.98
64019;BME280;66942;52.138;5.216;2023-02-01T08:47:46;101876.0;;;8.51;65.3
64019;BME280;66942;52.138;5.216;2023-02-01T08:51:01;101885.0;;;8.73;64.74
64019;BME280;66942;52.138;5.216;2023-02-01T08:52:38;101884.0;;;8.83;64.78
64019;BME280;66942;52.138;5.216;2023-02-01T08:54:14;101886.0;;;8.74;64.69
64019;BME280;66942;52.138;5.216;2023-02-01T08:57:27;101885.0;;;8.85;64.86
64019;BME280;66942;52.138;5.216;2023-02-01T08:59:03;101890.0;;;8.9;64.47
64019;BME280;66942;52.138;5.216;2023-02-01T09:00:40;101889.0;;;9.02;64.16
64019;BME280;66942;52.138;5.216;2023-02-01T09:02:17;101880.0;;;8.89;64.69
64019;BME280;66942;52.138;5.216;2023-02-01T09:05:31;101873.0;;;8.82;64.73
64019;BME280;66942;52.138;5.216;2023-02-01T09:07:07;101872.0;;;8.86;64.67
64019;BME280;66942;52.138;5.216;2023-02-01T09:08:44;101874.0;;;8.94;64.66
64019;BME280;66942;52.138;5.216;2023-02-01T09:11:56;101867.0;;;9.09;64.55
64019;BME280;66942;52.138;5.216;2023-02-01T09:13:34;101863.0;;;9.0;64.36
64019;BME280;66942;52.138;5.216;2023-02-01T09:15:10;101864.0;;;9.25;63.91
64019;BME280;66942;52.138;5.216;2023-02-01T09:16:47;101856.0;;;9.43;63.7
64019;BME280;66942;52.138;5.216;2023-02-01T09:20:01;101860.0;;;9.52;63.06
64019;BME280;66942;52.138;5.216;2023-02-01T09:21:37;101857.0;;;9.75;63.31
64019;BME280;66942;52.138;5.216;2023-02-01T09:23:13;101858.0;;;9.81;62.27
64019;BME280;66942;52.138;5.216;2023-02-01T09:26:28;101856.0;;;9.68;62.02
64019;BME280;66942;52.138;5.216;2023-02-01T09:28:06;101855.0;;;9.75;61.58
64019;BME280;66942;52.138;5.216;2023-02-01T09:29:42;101860.0;;;9.61;62.01
64019;BME280;66942;52.138;5.216;2023-02-01T09:32:55;101868.0;;;9.68;62.03
64019;BME280;66942;52.138;5.216;2023-02-01T09:34:31;101868.0;;;9.51;62.29
64019;BME280;66942;52.138;5.216;2023-02-01T09:36:09;101873.0;;;9.64;62.0
64019;BME280;66942;52.138;5.216;2023-02-01T09:37:45;101864.0;;;9.56;62.09
64019;BME280;66942;52.138;5.216;2023-02-01T09:40:59;101870.0;;;9.53;62.2
64019;BME280;66942;52.138;5.216;2023-02-01T09:42:52;101866.0;;;9.5;62.33
64019;BME280;66942;52.138;5.216;2023-02-01T09:44:55;101863.0;;;9.48;62.83
64019;BME280;66942;52.138;5.216;2023-02-01T09:47:20;101877.0;;;9.33;62.83
64019;BME280;66942;52.138;5.216;2023-02-01T09:49:02;101872.0;;;9.78;62.21
64019;BME280;66942;52.138;5.216;2023-02-01T09:50:54;101874.0;;;9.48;63.0
64019;BME280;66942;52.138;5.216;2023-02-01T09:52:36;101863.0;;;9.55;62.52
64019;BME280;66942;52.138;5.216;2023-02-01T09:54:33;101880.0;;;9.61;62.58
64019;BME280;66942;52.138;5.216;2023-02-01T09:58:02;101873.0;;;9.44;62.79
64019;BME280;66942;52.138;5.216;2023-02-01T09:59:44;101871.0;;;9.67;62.7
64019;BME280;66942;52.138;5.216;2023-02-01T10:01:24;101868.0;;;9.26;63.02
64019;BME280;66942;52.138;5.216;2023-02-01T10:03:03;101859.0;;;9.35;63.02
64019;BME280;66942;52.138;5.216;2023-02-01T10:06:27;101858.0;;;9.36;62.95
64019;BME280;66942;52.138;5.216;2023-02-01T10:08:54;101858.0;;;9.5;62.87
64019;BME280;66942;52.138;5.216;2023-02-01T10:10:39;101845.0;;;9.34;63.26
64019;BME280;66942;52.138;5.216;2023-02-01T10:12:36;101853.0;;;9.43;63.95
64019;BME280;66942;52.138;5.216;2023-02-01T10:16:05;101861.0;;;9.23;65.39
64019;BME280;66942;52.138;5.216;2023-02-01T10:18:00;101858.0;;;9.21;65.99
64019;BME280;66942;52.138;5.216;2023-02-01T10:19:47;101865.0;;;9.22;66.31
64019;BME280;66942;52.138;5.216;2023-02-01T10:23:43;101867.0;;;8.9;67.77
64019;BME280;66942;52.138;5.216;2023-02-01T10:26:18;101870.0;;;8.86;68.39
64019;BME280;66942;52.138;5.216;2023-02-01T10:27:59;101865.0;;;9.11;67.77
64019;BME280;66942;52.138;5.216;2023-02-01T10:31:18;101875.0;;;8.94;67.8
64019;BME280;66942;52.138;5.216;2023-02-01T10:33:03;101880.0;;;8.82;67.75
64019;BME280;66942;52.138;5.216;2023-02-01T10:34:57;101882.0;;;8.59;67.6
64019;BME280;66942;52.138;5.216;2023-02-01T10:36:41;101871.0;;;8.55;67.27
64019;BME280;66942;52.138;5.216;2023-02-01T10:40:09;101860.0;;;8.57;67.44
64019;BME280;66942;52.138;5.216;2023-02-01T10:41:57;101861.0;;;8.67;66.95
64019;BME280;66942;52.138;5.216;2023-02-01T10:43:34;101869.0;;;8.68;66.5
64019;BME280;66942;52.138;5.216;2023-02-01T10:45:13;101862.0;;;8.74;67.1
64019;BME280;66942;52.138;5.216;2023-02-01T10:46:51;101847.0;;;8.78;66.12
64019;BME280;66942;52.138;5.216;2023-02-01T10:50:15;101853.0;;;8.65;66.25
64019;BME280;66942;52.138;5.216;2023-02-01T10:51:58;101850.0;;;8.73;66.08
64019;BME280;66942;52.138;5.216;2023-02-01T10:53:43;101855.0;;;8.98;65.95
64019;BME280;66942;52.138;5.216;2023-02-01T10:55:33;101850.0;;;8.82;66.6
64019;BME280;66942;52.138;5.216;2023-02-01T10:59:01;101843.0;;;9.06;65.16
64019;BME280;66942;52.138;5.216;2023-02-01T11:00:43;101844.0;;;9.07;64.92
64019;BME280;66942;52.138;5.216;2023-02-01T11:02:26;101855.0;;;9.19;64.41
64019;BME280;66942;52.138;5.216;2023-02-01T11:04:05;101851.0;;;9.38;64.27
64019;BME280;66942;52.138;5.216;2023-02-01T11:05:46;101845.0;;;9.28;64.02
64019;BME280;66942;52.138;5.216;2023-02-01T11:09:10;101845.0;;;9.38;63.74
64019;BME280;66942;52.138;5.216;2023-02-01T11:10:58;101847.0;;;9.61;63.9
64019;BME280;66942;52.138;5.216;2023-02-01T11:12:36;101836.0;;;9.33;64.91
64019;BME280;66942;52.138;5.216;2023-02-01T11:14:16;101853.0;;;9.38;64.99
64019;BME280;66942;52.138;5.216;2023-02-01T11:17:34;101844.0;;;9.39;64.52
64019;BME280;66942;52.138;5.216;2023-02-01T11:19:15;101848.0;;;9.23;64.7
64019;BME280;66942;52.138;5.216;2023-02-01T11:20:53;101857.0;;;9.3;65.06
64019;BME280;66942;52.138;5.216;2023-02-01T11:22:30;101835.0;;;9.33;65.22
64019;BME280;66942;52.138;5.216;2023-02-01T11:26:01;101843.0;;;9.48;65.14
64019;BME280;66942;52.138;5.216;2023-02-01T11:27:46;101835.0;;;9.44;64.74
64019;BME280;66942;52.138;5.216;2023-02-01T11:29:35;101838.0;;;9.56;64.47
64019;BME280;66942;52.138;5.216;2023-02-01T11:31:12;101841.0;;;9.43;64.66
64019;BME280;66942;52.138;5.216;2023-02-01T11:32:50;101836.0;;;9.46;64.41
64019;BME280;66942;52.138;5.216;2023-02-01T11:36:16;101839.0;;;9.43;64.31
64019;BME280;66942;52.138;5.216;2023-02-01T11:37:57;101844.0;;;9.36;65.06
64019;BME280;66942;52.138;5.216;2023-02-01T11:39:34;101843.0;;;9.47;64.44